createdAt,value
2019-01-22T00:02:10.144Z,29.77
2019-01-22T00:04:38.430Z,31.33
2019-01-22T00:07:06.721Z,30.88
2019-01-22T00:09:35.126Z,30.77
2019-01-22T00:12:04.221Z,31.15
2019-01-22T00:14:32.511Z,24.98
2019-01-22T00:17:00.757Z,31.37
2019-01-22T00:19:29.009Z,31.33
2019-01-22T00:21:57.291Z,31.20
2019-01-22T00:24:25.576Z,30.95
2019-01-22T00:26:53.840Z,29.87
2019-01-22T00:29:22.136Z,29.97
2019-01-22T00:31:50.377Z,31.80
2019-01-22T00:34:18.661Z,32.37
2019-01-22T00:36:47.084Z,31.45
2019-01-22T00:39:15.809Z,32.15
2019-01-22T00:41:44.102Z,32.37
2019-01-22T00:44:12.394Z,34.25
2019-01-22T00:46:40.646Z,27.45
2019-01-22T00:49:08.892Z,35.32
2019-01-22T00:51:37.285Z,35.25
2019-01-22T00:54:05.815Z,33.25
2019-01-22T00:56:34.068Z,35.05
2019-01-22T00:59:02.354Z,34.95
2019-01-22T01:01:30.604Z,35.70
2019-01-22T01:03:58.888Z,34.60
2019-01-22T01:06:27.174Z,33.25
2019-01-22T01:08:55.783Z,32.33
2019-01-22T01:11:24.100Z,33.63
2019-01-22T01:13:52.347Z,35.23
2019-01-22T01:16:20.595Z,43.25
2019-01-22T01:18:48.891Z,33.88
2019-01-22T01:21:17.139Z,31.83
2019-01-22T01:23:45.586Z,32.28
2019-01-22T01:26:13.862Z,32.98
2019-01-22T01:28:42.107Z,34.65
2019-01-22T01:31:10.387Z,34.03
2019-01-22T01:33:38.636Z,34.23
2019-01-22T01:36:06.918Z,35.00
2019-01-22T01:38:35.478Z,36.28
2019-01-22T01:41:04.251Z,36.18
2019-01-22T01:43:32.545Z,31.02
2019-01-22T01:46:00.793Z,36.13
2019-01-22T01:48:29.037Z,36.40
2019-01-22T01:50:57.330Z,35.13
2019-01-22T01:53:25.960Z,35.70
2019-01-22T01:55:54.239Z,34.85
2019-01-22T01:58:22.483Z,34.20
2019-01-22T02:00:50.766Z,35.33
2019-01-22T02:03:19.010Z,35.57
2019-01-22T02:05:47.289Z,35.15
2019-01-22T02:08:15.807Z,35.35
2019-01-22T02:10:44.109Z,34.18
2019-01-22T02:13:12.356Z,34.85
2019-01-22T02:15:46.414Z,34.70
2019-01-22T02:18:20.725Z,32.90
2019-01-22T02:20:58.205Z,34.57
2019-01-22T02:23:32.618Z,32.50
2019-01-22T02:26:04.162Z,31.95
2019-01-22T02:28:41.721Z,33.35
2019-01-22T02:31:28.541Z,30.32
2019-01-22T02:34:02.735Z,32.95
2019-01-22T02:36:50.618Z,32.17
2019-01-22T02:39:24.681Z,30.72
2019-01-22T02:41:56.193Z,31.95
2019-01-22T02:44:30.754Z,33.55
2019-01-22T02:47:08.402Z,32.85
2019-01-22T02:50:04.278Z,32.60
2019-01-22T02:52:41.838Z,31.07
2019-01-22T02:55:13.396Z,31.80
2019-01-22T02:57:51.208Z,31.87
2019-01-22T03:00:57.916Z,33.73
2019-01-22T03:03:35.393Z,34.08
2019-01-22T03:06:28.180Z,33.95
2019-01-22T03:09:18.845Z,33.98
2019-01-22T03:11:56.578Z,31.12
2019-01-22T03:15:01.474Z,35.00
2019-01-22T03:17:54.131Z,33.78
2019-01-22T03:20:41.015Z,30.67
2019-01-22T03:23:24.185Z,34.80
2019-01-22T03:26:07.340Z,35.60
2019-01-22T03:28:51.015Z,34.00
2019-01-22T03:31:25.150Z,35.52
2019-01-22T03:34:05.249Z,34.85
2019-01-22T03:36:51.786Z,35.43
2019-01-22T03:39:26.395Z,34.77
2019-01-22T03:42:16.031Z,35.63
2019-01-22T03:44:59.201Z,35.70
2019-01-22T03:47:42.578Z,33.88
2019-01-22T03:50:14.128Z,35.85
2019-01-22T03:52:46.038Z,37.83
2019-01-22T03:55:29.414Z,35.20
2019-01-22T03:57:57.672Z,36.75
2019-01-22T04:00:26.098Z,36.85
2019-01-22T04:02:54.623Z,36.90
2019-01-22T04:05:22.910Z,36.93
2019-01-22T04:07:51.157Z,37.78
2019-01-22T04:10:22.664Z,37.60
2019-01-22T04:12:50.954Z,37.90
2019-01-22T04:15:22.496Z,38.17
2019-01-22T04:17:51.053Z,38.08
2019-01-22T04:20:19.299Z,36.63
2019-01-22T04:22:48.819Z,37.80
2019-01-22T04:25:44.064Z,38.25
2019-01-22T04:28:34.860Z,38.98
2019-01-22T04:31:10.262Z,38.55
2019-01-22T04:34:06.779Z,38.65
2019-01-22T04:37:05.623Z,38.30
2019-01-22T04:39:43.041Z,38.78
2019-01-22T04:42:14.580Z,38.85
2019-01-22T04:44:54.946Z,39.65
2019-01-22T04:47:41.597Z,39.15
2019-01-22T04:50:22.366Z,38.63
2019-01-22T04:53:08.744Z,36.05
2019-01-22T04:55:48.529Z,38.50
2019-01-22T04:58:20.072Z,38.95
2019-01-22T05:01:03.023Z,38.08
2019-01-22T05:03:37.562Z,38.98
2019-01-22T05:06:21.078Z,37.78
2019-01-22T05:08:58.219Z,37.85
2019-01-22T05:11:41.762Z,39.25
2019-01-22T05:14:22.071Z,38.55
2019-01-22T05:16:56.180Z,38.15
2019-01-22T05:19:30.708Z,38.35
2019-01-22T05:22:19.676Z,37.83
2019-01-22T05:25:06.313Z,37.50
2019-01-22T05:27:41.114Z,37.88
2019-01-22T05:30:15.602Z,38.38
2019-01-22T05:33:06.406Z,39.18
2019-01-22T05:35:40.752Z,38.75
2019-01-22T05:38:21.337Z,37.67
2019-01-22T05:41:15.648Z,37.63
2019-01-22T05:44:09.841Z,36.83
2019-01-22T05:46:59.541Z,37.90
2019-01-22T05:50:06.386Z,37.73
2019-01-22T05:52:58.921Z,37.13
2019-01-22T05:55:39.093Z,44.03
2019-01-22T05:58:24.927Z,38.63
2019-01-22T06:00:56.497Z,36.85
2019-01-22T06:03:31.050Z,36.53
2019-01-22T06:06:17.827Z,36.65
2019-01-22T06:08:52.188Z,35.43
2019-01-22T06:11:29.319Z,36.98
2019-01-22T06:14:19.016Z,36.30
2019-01-22T06:17:05.414Z,36.88
2019-01-22T06:19:54.575Z,35.75
2019-01-22T06:22:49.068Z,36.58
2019-01-22T06:25:49.873Z,37.10
2019-01-22T06:28:33.201Z,36.53
2019-01-22T06:31:10.300Z,35.43
2019-01-22T06:33:47.583Z,34.55
2019-01-22T06:36:27.695Z,36.33
2019-01-22T06:39:15.931Z,36.93
2019-01-22T06:42:03.916Z,36.17
2019-01-22T06:44:47.410Z,35.88
2019-01-22T06:47:24.544Z,35.88
2019-01-22T06:50:01.991Z,36.28
2019-01-22T06:52:39.340Z,36.45
2019-01-22T06:55:13.643Z,34.63
2019-01-22T06:57:48.145Z,34.50
2019-01-22T07:00:22.447Z,33.75
2019-01-22T07:02:56.830Z,34.13
2019-01-22T07:05:42.687Z,33.88
2019-01-22T07:08:18.466Z,33.50
2019-01-22T07:10:52.696Z,32.13
2019-01-22T07:13:30.043Z,32.48
2019-01-22T07:16:07.443Z,33.10
2019-01-22T07:18:44.497Z,32.05
2019-01-22T07:21:27.635Z,32.20
2019-01-22T07:24:14.198Z,31.23
2019-01-22T07:27:05.383Z,30.32
2019-01-22T07:29:58.188Z,29.92
2019-01-22T07:32:29.693Z,28.67
2019-01-22T07:35:10.327Z,30.50
2019-01-22T07:37:41.831Z,28.92
2019-01-22T07:40:27.907Z,30.80
2019-01-22T07:43:02.269Z,29.60
2019-01-22T07:45:39.579Z,29.25
2019-01-22T07:48:11.086Z,29.55
2019-01-22T07:50:54.701Z,29.25
2019-01-22T07:53:26.206Z,28.73
2019-01-22T07:56:17.356Z,30.60
2019-01-22T07:58:51.840Z,29.50
2019-01-22T08:01:26.341Z,28.52
2019-01-22T08:04:14.212Z,28.80
2019-01-22T08:07:02.266Z,28.15
2019-01-22T08:09:33.807Z,28.75
2019-01-22T08:12:26.337Z,27.62
2019-01-22T08:14:57.891Z,28.40
2019-01-22T08:17:47.609Z,25.70
2019-01-22T08:20:53.816Z,28.52
2019-01-22T08:23:31.386Z,26.73
2019-01-22T08:26:23.549Z,27.13
2019-01-22T08:29:03.928Z,25.97
2019-01-22T08:31:55.049Z,24.52
2019-01-22T08:34:38.722Z,23.95
2019-01-22T08:37:29.781Z,24.10
2019-01-22T08:40:06.990Z,23.90
2019-01-22T08:42:50.772Z,22.60
2019-01-22T08:45:28.543Z,22.97
2019-01-22T08:48:03.205Z,22.22
2019-01-22T08:50:37.483Z,23.85
2019-01-22T08:53:11.759Z,22.62
2019-01-22T08:55:54.618Z,22.17
2019-01-22T08:58:38.192Z,20.25
2019-01-22T09:01:18.601Z,20.77
2019-01-22T09:04:05.269Z,19.57
2019-01-22T09:06:59.571Z,18.73
2019-01-22T09:09:42.652Z,16.73
2019-01-22T09:12:32.041Z,16.23
2019-01-22T09:15:36.712Z,13.40
2019-01-22T09:18:35.630Z,12.53
2019-01-22T09:21:10.193Z,12.45
2019-01-22T09:24:01.768Z,12.37
2019-01-22T09:26:33.495Z,11.83
2019-01-22T09:29:11.215Z,11.95
2019-01-22T09:31:58.066Z,12.45
2019-01-22T09:35:01.511Z,12.58
2019-01-22T09:37:32.107Z,12.07
2019-01-22T09:40:00.404Z,12.43
2019-01-22T09:42:28.647Z,12.47
2019-01-22T09:44:56.927Z,12.10
2019-01-22T09:47:25.170Z,12.23
2019-01-22T09:49:53.447Z,12.18
2019-01-22T09:52:21.727Z,11.05
2019-01-22T09:54:50.012Z,11.70
2019-01-22T09:57:18.252Z,11.40
2019-01-22T09:59:46.534Z,11.68
2019-01-22T10:02:14.820Z,11.15
2019-01-22T10:04:43.072Z,11.53
2019-01-22T10:07:11.357Z,12.20
2019-01-22T10:09:39.712Z,11.63
2019-01-22T10:12:07.996Z,12.07
2019-01-22T10:14:36.234Z,12.35
2019-01-22T10:17:04.527Z,12.10
2019-01-22T10:19:32.777Z,12.55
2019-01-22T10:22:01.015Z,12.93
2019-01-22T10:24:30.420Z,13.10
2019-01-22T10:26:58.710Z,12.45
2019-01-22T10:29:26.955Z,13.53
2019-01-22T10:31:55.198Z,13.45
2019-01-22T10:34:23.483Z,14.10
2019-01-22T10:36:51.765Z,13.98
2019-01-22T10:39:20.007Z,13.57
2019-01-22T10:41:48.286Z,14.03
2019-01-22T10:44:16.535Z,13.05
2019-01-22T10:46:44.811Z,13.88
2019-01-22T10:49:13.055Z,12.98
2019-01-22T10:51:41.327Z,14.10
2019-01-22T10:54:09.613Z,12.78
2019-01-22T10:56:37.882Z,15.13
2019-01-22T10:59:06.126Z,14.40
2019-01-22T11:01:34.413Z,13.65
2019-01-22T11:04:02.661Z,12.50
2019-01-22T11:06:30.954Z,12.98
2019-01-22T11:08:59.203Z,13.15
2019-01-22T11:11:27.502Z,13.03
2019-01-22T11:13:55.742Z,12.68
2019-01-22T11:16:23.982Z,12.93
2019-01-22T11:18:52.314Z,13.15
2019-01-22T11:21:20.554Z,12.50
2019-01-22T11:23:48.831Z,12.47
2019-01-22T11:26:17.104Z,13.50
2019-01-22T11:28:45.347Z,13.40
2019-01-22T11:31:13.630Z,13.03
2019-01-22T11:33:41.880Z,12.73
2019-01-22T11:36:10.153Z,11.80
2019-01-22T11:38:38.394Z,12.85
2019-01-22T11:41:06.684Z,11.90
2019-01-22T11:43:34.927Z,11.70
2019-01-22T11:46:04.215Z,12.20
2019-01-22T11:48:32.501Z,12.18
2019-01-22T11:51:00.761Z,11.90
2019-01-22T11:53:29.023Z,11.78
2019-01-22T11:55:57.300Z,13.18
2019-01-22T11:58:25.580Z,13.15
2019-01-22T12:00:55.432Z,12.33
2019-01-22T12:03:23.686Z,12.13
2019-01-22T12:05:53.379Z,12.50
2019-01-22T12:08:21.695Z,12.78
2019-01-22T12:10:49.937Z,13.00
2019-01-22T12:13:18.273Z,13.85
2019-01-22T12:15:46.553Z,13.20
2019-01-22T12:18:14.840Z,13.15
2019-01-22T12:20:44.623Z,12.80
2019-01-22T12:23:12.864Z,12.78
2019-01-22T12:25:41.160Z,10.97
2019-01-22T12:28:09.406Z,12.03
2019-01-22T12:30:38.221Z,11.08
2019-01-22T12:33:06.570Z,11.68
2019-01-22T12:35:34.811Z,12.07
2019-01-22T12:38:03.094Z,12.23
2019-01-22T12:40:31.356Z,12.13
2019-01-22T12:42:59.648Z,12.80
2019-01-22T12:45:36.344Z,14.30
2019-01-22T12:48:05.319Z,13.78
2019-01-22T12:50:33.622Z,14.47
2019-01-22T12:53:01.874Z,14.98
2019-01-22T12:55:30.145Z,14.50
2019-01-22T12:57:58.431Z,15.93
2019-01-22T13:00:31.599Z,15.25
2019-01-22T13:02:59.882Z,17.87
2019-01-22T13:05:34.499Z,16.15
2019-01-22T13:08:02.739Z,16.25
2019-01-22T13:10:31.011Z,15.98
2019-01-22T13:12:59.299Z,15.50
2019-01-22T13:15:27.575Z,16.23
2019-01-22T13:17:55.817Z,15.68
2019-01-22T13:20:24.170Z,15.60
2019-01-22T13:22:52.450Z,16.00
2019-01-22T13:25:20.984Z,16.65
2019-01-22T13:27:49.570Z,17.90
2019-01-22T13:30:28.456Z,18.07
2019-01-22T13:32:56.694Z,17.65
2019-01-22T13:35:24.979Z,18.10
2019-01-22T13:37:53.253Z,18.87
2019-01-22T13:40:21.516Z,19.55
2019-01-22T13:42:49.790Z,20.00
2019-01-22T13:45:33.563Z,19.17
2019-01-22T13:48:03.691Z,20.45
2019-01-22T13:50:31.939Z,20.68
2019-01-22T13:53:00.225Z,20.30
2019-01-22T13:55:34.252Z,18.92
2019-01-22T13:58:02.534Z,20.65
2019-01-22T14:00:30.847Z,19.20
2019-01-22T14:03:00.673Z,19.73
2019-01-22T14:05:28.959Z,18.37
2019-01-22T14:07:57.246Z,19.52
2019-01-22T14:10:25.538Z,19.05
2019-01-22T14:12:53.801Z,19.48
2019-01-22T14:15:24.984Z,18.37
2019-01-22T14:17:53.224Z,18.07
2019-01-22T14:20:21.514Z,18.00
2019-01-22T14:22:49.792Z,17.62
2019-01-22T14:25:20.318Z,18.27
2019-01-22T14:27:48.597Z,17.77
2019-01-22T14:30:22.685Z,18.40
2019-01-22T14:32:50.964Z,18.45
2019-01-22T14:35:19.203Z,17.47
2019-01-22T14:37:47.632Z,18.27
2019-01-22T14:40:15.912Z,18.75
2019-01-22T14:42:44.205Z,19.30
2019-01-22T14:45:17.462Z,19.35
2019-01-22T14:47:45.759Z,18.62
2019-01-22T14:50:22.506Z,19.17
2019-01-22T14:52:50.788Z,19.90
2019-01-22T14:55:19.067Z,20.17
2019-01-22T14:57:47.704Z,19.82
2019-01-22T15:00:20.890Z,19.73
2019-01-22T15:02:49.175Z,18.57
2019-01-22T15:05:17.420Z,19.48
2019-01-22T15:07:45.705Z,19.48
2019-01-22T15:10:15.929Z,19.98
2019-01-22T15:12:45.153Z,19.57
2019-01-22T15:15:15.330Z,20.20
2019-01-22T15:17:43.613Z,20.17
2019-01-22T15:20:20.454Z,19.85
2019-01-22T15:22:48.739Z,20.82
2019-01-22T15:25:17.128Z,22.15
2019-01-22T15:27:45.752Z,21.37
2019-01-22T15:30:28.292Z,21.73
2019-01-22T15:32:56.608Z,21.30
2019-01-22T15:35:24.854Z,22.87
2019-01-22T15:37:53.139Z,22.58
2019-01-22T15:40:26.138Z,23.60
2019-01-22T15:42:54.396Z,23.15
2019-01-22T15:45:23.000Z,24.72
2019-01-22T15:47:51.286Z,22.98
2019-01-22T15:50:21.107Z,23.00
2019-01-22T15:52:49.497Z,22.75
2019-01-22T15:55:21.047Z,23.32
2019-01-22T15:57:49.291Z,23.65
2019-01-22T16:00:19.523Z,22.73
2019-01-22T16:02:47.813Z,21.37
2019-01-22T16:05:16.055Z,22.87
2019-01-22T16:07:44.303Z,23.35
2019-01-22T16:10:13.185Z,23.65
2019-01-22T16:12:41.478Z,23.12
2019-01-22T16:15:12.817Z,24.47
2019-01-22T16:17:41.058Z,22.75
2019-01-22T16:20:17.997Z,22.17
2019-01-22T16:22:46.279Z,23.30
2019-01-22T16:25:14.520Z,22.37
2019-01-22T16:27:43.177Z,22.02
2019-01-22T16:30:17.211Z,23.35
2019-01-22T16:32:45.495Z,23.42
2019-01-22T16:35:18.820Z,23.83
2019-01-22T16:37:47.108Z,23.10
2019-01-22T16:40:16.482Z,23.57
2019-01-22T16:42:45.199Z,22.27
2019-01-22T16:45:24.947Z,23.98
2019-01-22T16:47:53.352Z,24.25
2019-01-22T16:50:22.055Z,20.68
2019-01-22T16:52:50.468Z,23.98
2019-01-22T16:55:24.750Z,23.90
2019-01-22T16:57:52.996Z,24.07
2019-01-22T17:00:24.126Z,23.83
2019-01-22T17:02:52.538Z,24.98
2019-01-22T17:05:20.842Z,25.23
2019-01-22T17:07:49.090Z,25.20
2019-01-22T17:10:19.237Z,24.52
2019-01-22T17:12:47.556Z,23.83
2019-01-22T17:15:16.780Z,25.25
2019-01-22T17:17:45.025Z,25.85
2019-01-22T17:20:24.908Z,26.15
2019-01-22T17:22:53.215Z,26.45
2019-01-22T17:25:23.170Z,26.00
2019-01-22T17:27:51.467Z,26.73
2019-01-22T17:30:22.349Z,26.37
2019-01-22T17:32:52.231Z,25.77
2019-01-22T17:35:20.651Z,26.48
2019-01-22T17:37:48.901Z,25.62
2019-01-22T17:40:17.156Z,26.80
2019-01-22T17:42:45.463Z,26.52
2019-01-22T17:45:13.747Z,27.05
2019-01-22T17:47:42.109Z,27.60
2019-01-22T17:50:12.863Z,27.37
2019-01-22T17:52:41.185Z,27.35
2019-01-22T17:55:11.871Z,26.90
2019-01-22T17:57:40.170Z,28.03
2019-01-22T18:00:16.194Z,27.38
2019-01-22T18:02:44.483Z,27.85
2019-01-22T18:05:15.206Z,27.85
2019-01-22T18:07:43.521Z,26.42
2019-01-22T18:10:14.471Z,27.42
2019-01-22T18:12:42.734Z,27.90
2019-01-22T18:15:13.663Z,28.42
2019-01-22T18:17:41.981Z,27.17
2019-01-22T18:20:13.274Z,27.90
2019-01-22T18:22:41.553Z,26.68
2019-01-22T18:25:10.785Z,28.65
2019-01-22T18:27:39.084Z,28.95
2019-01-22T18:30:13.432Z,26.10
2019-01-22T18:32:41.691Z,28.38
2019-01-22T18:35:22.065Z,27.75
2019-01-22T18:37:50.335Z,28.47
2019-01-22T18:40:19.410Z,29.07
2019-01-22T18:42:47.675Z,29.98
2019-01-22T18:45:17.514Z,29.75
2019-01-22T18:47:45.761Z,30.45
2019-01-22T18:50:23.147Z,29.03
2019-01-22T18:52:51.681Z,29.40
2019-01-22T18:55:21.449Z,30.00
2019-01-22T18:57:50.299Z,30.25
2019-01-22T19:00:22.837Z,31.52
2019-01-22T19:02:51.686Z,31.03
2019-01-22T19:05:20.085Z,31.00
2019-01-22T19:07:48.456Z,31.35
2019-01-22T19:10:22.546Z,31.17
2019-01-22T19:12:50.980Z,31.15
2019-01-22T19:15:19.856Z,29.87
2019-01-22T19:17:48.156Z,30.80
2019-01-22T19:20:16.560Z,32.75
2019-01-22T19:22:44.803Z,31.65
2019-01-22T19:25:21.742Z,29.98
2019-01-22T19:27:50.036Z,32.13
2019-01-22T19:30:29.278Z,32.65
2019-01-22T19:32:57.593Z,32.08
2019-01-22T19:35:25.839Z,31.62
2019-01-22T19:37:54.144Z,30.83
2019-01-22T19:40:22.399Z,30.40
2019-01-22T19:42:50.693Z,31.27
2019-01-22T19:45:24.697Z,32.20
2019-01-22T19:47:52.936Z,32.23
2019-01-22T19:50:21.249Z,32.90
2019-01-22T19:52:49.490Z,32.28
2019-01-22T19:55:17.742Z,31.75
2019-01-22T19:57:46.035Z,31.37
2019-01-22T20:00:19.732Z,33.08
2019-01-22T20:02:47.982Z,32.45
2019-01-22T20:05:16.301Z,32.05
2019-01-22T20:07:44.623Z,31.00
2019-01-22T20:10:17.326Z,32.48
2019-01-22T20:12:45.590Z,32.67
2019-01-22T20:15:21.252Z,33.02
2019-01-22T20:17:49.494Z,33.25
2019-01-22T20:20:18.985Z,33.60
2019-01-22T20:22:47.278Z,33.02
2019-01-22T20:25:16.339Z,32.17
2019-01-22T20:27:48.294Z,27.82
2019-01-22T20:30:18.001Z,32.80
2019-01-22T20:32:46.357Z,33.75
2019-01-22T20:35:14.603Z,34.18
2019-01-22T20:37:42.899Z,32.67
2019-01-22T20:40:15.404Z,33.27
2019-01-22T20:42:43.693Z,34.90
2019-01-22T20:45:17.082Z,34.20
2019-01-22T20:47:45.370Z,33.78
2019-01-22T20:50:18.987Z,33.50
2019-01-22T20:52:44.964Z,35.23
2019-01-22T20:55:18.285Z,33.48
2019-01-22T20:57:46.573Z,36.68
2019-01-22T21:00:19.641Z,34.70
2019-01-22T21:02:47.928Z,33.38
2019-01-22T21:05:18.388Z,35.63
2019-01-22T21:07:46.843Z,33.58
2019-01-22T21:10:21.547Z,34.50
2019-01-22T21:12:49.860Z,35.23
2019-01-22T21:15:18.113Z,33.40
2019-01-22T21:17:46.400Z,34.73
2019-01-22T21:20:18.168Z,35.10
2019-01-22T21:22:46.495Z,36.75
2019-01-22T21:25:19.757Z,36.05
2019-01-22T21:27:48.000Z,35.80
2019-01-22T21:30:19.347Z,36.80
2019-01-22T21:32:47.591Z,35.13
2019-01-22T21:35:15.835Z,35.28
2019-01-22T21:37:44.139Z,36.63
2019-01-22T21:40:14.132Z,36.13
2019-01-22T21:42:42.423Z,36.13
2019-01-22T21:45:20.044Z,36.73
2019-01-22T21:47:48.330Z,37.30
2019-01-22T21:50:16.576Z,36.93
2019-01-22T21:52:44.930Z,36.80
2019-01-22T21:55:15.416Z,43.70
2019-01-22T21:57:43.699Z,36.38
2019-01-22T22:00:15.596Z,27.62
2019-01-22T22:02:44.547Z,36.35
2019-01-22T22:05:13.333Z,35.90
2019-01-22T22:07:41.620Z,33.08
2019-01-22T22:10:15.471Z,38.38
2019-01-22T22:12:43.789Z,38.17
2019-01-22T22:15:14.771Z,38.90
2019-01-22T22:17:43.061Z,39.30
2019-01-22T22:20:15.449Z,38.23
2019-01-22T22:22:43.694Z,39.63
2019-01-22T22:25:17.596Z,38.88
2019-01-22T22:27:45.838Z,39.05
2019-01-22T22:30:16.928Z,39.33
2019-01-22T22:32:45.185Z,41.68
2019-01-22T22:35:13.426Z,39.80
2019-01-22T22:37:41.827Z,40.20
2019-01-22T22:40:15.586Z,39.38
2019-01-22T22:42:43.873Z,39.70
2019-01-22T22:45:15.053Z,39.70
2019-01-22T22:47:43.340Z,40.65
2019-01-22T22:50:19.814Z,42.03
2019-01-22T22:52:48.307Z,40.73
2019-01-22T22:55:16.714Z,41.73
2019-01-22T22:57:44.972Z,40.30
2019-01-22T23:00:33.260Z,39.80
2019-01-22T23:03:02.252Z,39.73
2019-01-22T23:05:30.502Z,39.95
2019-01-22T23:07:58.794Z,40.70
2019-01-22T23:10:27.055Z,40.87
2019-01-22T23:12:55.533Z,40.38
2019-01-22T23:15:23.782Z,39.30
2019-01-22T23:17:52.025Z,39.98
2019-01-22T23:20:20.423Z,42.38
2019-01-22T23:22:48.664Z,40.35
2019-01-22T23:25:16.941Z,42.55
2019-01-22T23:27:45.554Z,41.48
2019-01-22T23:30:15.855Z,41.20
2019-01-22T23:32:45.335Z,41.65
2019-01-22T23:35:13.617Z,42.78
2019-01-22T23:37:41.892Z,42.38
2019-01-22T23:40:14.495Z,42.50
2019-01-22T23:42:42.778Z,41.40
2019-01-22T23:45:12.273Z,43.15
2019-01-22T23:47:40.528Z,42.75
2019-01-22T23:50:11.246Z,41.74
2019-01-22T23:52:39.607Z,42.45
2019-01-22T23:55:08.836Z,43.25
2019-01-22T23:57:37.086Z,43.05
